Time;durP1;ratioP1;P1;durP2;ratioP2;P2;SDS_P1;SDS_P2;PMS_P1;PMS_P2;Temp;Humidity;BMP_temperature;BMP_pressure;BME280_temperature;BME280_humidity;BME280_pressure;Samples;Min_cycle;Max_cycle;Signal;HPM_P1;HPM_P2
2022/09/07 00:00:30;;;;;;;;;;;;;;;26.34;45.57;99280.53;4467299;32;35214;-88
2022/09/07 00:02:58;;;;;;;;;;;;;;;26.47;45.30;99276.34;4467571;32;33419;-88
2022/09/07 00:05:27;;;;;;;;;;;;;;;26.53;45.21;99285.81;4467393;32;34320;-83
2022/09/07 00:07:54;;;;;;;;;;;;;;;26.68;44.62;99274.38;4467608;32;33901;-87
2022/09/07 00:10:22;;;;;;;;;;;;;;;26.64;44.64;99284.31;4466802;32;34861;-83
2022/09/07 00:12:49;;;;;;;;;;;;;;;26.61;44.60;99289.78;4467478;32;33590;-84
2022/09/07 00:15:17;;;;;;;;;;;;;;;26.69;44.45;99287.59;4467715;32;34349;-83
2022/09/07 00:17:44;;;;;;;;;;;;;;;26.78;44.12;99280.94;4471736;32;34404;-83
2022/09/07 00:20:11;;;;;;;;;;;;;;;26.69;44.19;99276.97;4478333;32;34141;-83
2022/09/07 00:22:38;;;;;;;;;;;;;;;26.69;44.05;99271.63;4469106;32;31917;-84
2022/09/07 00:25:06;;;;;;;;;;;;;;;26.66;43.92;99269.13;4478635;32;34101;-85
2022/09/07 00:27:33;;;;;;;;;;;;;;;26.75;43.89;99274.94;4480342;32;34160;-83
2022/09/07 00:30:00;;;;;;;;;;;;;;;26.80;43.63;99267.56;4467734;32;34608;-86
2022/09/07 00:32:28;;;;;;;;;;;;;;;26.74;43.62;99262.56;4470597;32;33423;-88
2022/09/07 00:34:55;;;;;;;;;;;;;;;26.68;43.62;99256.63;4477405;32;34211;-83
2022/09/07 00:37:22;;;;;;;;;;;;;;;26.63;43.77;99264.00;4482135;32;35064;-84
2022/09/07 00:39:50;;;;;;;;;;;;;;;26.69;43.67;99265.47;4472159;32;34802;-85
2022/09/07 00:42:18;;;;;;;;;;;;;;;26.71;43.54;99249.41;4463951;32;34231;-87
2022/09/07 00:44:55;;;;;;;;;;;;;;;26.61;43.71;99265.00;4467873;32;35236;-86
2022/09/07 00:47:31;;;;;;;;;;;;;;;26.42;44.09;99262.37;4467534;32;34352;-82
2022/09/07 00:49:59;;;;;;;;;;;;;;;26.27;44.43;99263.16;4461641;32;35010;-88
2022/09/07 00:52:27;;;;;;;;;;;;;;;26.23;44.47;99261.59;4457182;32;34511;-85
2022/09/07 00:54:55;;;;;;;;;;;;;;;25.99;45.41;99256.56;4482732;32;35145;-85
2022/09/07 00:57:22;;;;;;;;;;;;;;;26.24;44.76;99256.19;4483449;32;34905;-86
2022/09/07 00:59:52;;;;;;;;;;;;;;;26.32;44.49;99255.81;4467428;32;34221;-83
2022/09/07 01:02:22;;;;;;;;;;;;;;;26.39;44.36;99259.88;4461195;32;34115;-84
2022/09/07 01:04:50;;;;;;;;;;;;;;;26.35;44.43;99260.97;4476837;32;33949;-83
2022/09/07 01:07:18;;;;;;;;;;;;;;;25.41;46.66;99264.59;4482232;32;34402;-88
2022/09/07 01:09:46;;;;;;;;;;;;;;;26.02;45.05;99260.84;4458265;32;35039;-87
2022/09/07 01:12:13;;;;;;;;;;;;;;;25.94;45.45;99255.91;4453556;32;33416;-86
2022/09/07 01:14:46;;;;;;;;;;;;;;;26.00;45.32;99258.28;4467446;32;34644;-85
2022/09/07 01:17:16;;;;;;;;;;;;;;;25.66;45.91;99256.34;4454099;32;34294;-83
2022/09/07 01:19:50;;;;;;;;;;;;;;;25.91;45.30;99256.94;4468600;32;34877;-87
2022/09/07 01:22:23;;;;;;;;;;;;;;;25.87;45.35;99259.78;4453985;32;33549;-86
2022/09/07 01:24:57;;;;;;;;;;;;;;;25.91;45.16;99256.06;4467307;32;35113;-83
2022/09/07 01:27:33;;;;;;;;;;;;;;;25.65;45.79;99244.88;4478028;32;35745;-86
2022/09/07 01:30:06;;;;;;;;;;;;;;;25.07;47.32;99247.53;4468369;32;34249;-82
2022/09/07 01:32:45;;;;;;;;;;;;;;;25.00;47.53;99246.97;4472379;32;33519;-87
2022/09/07 01:35:28;;;;;;;;;;;;;;;23.06;52.74;99257.50;4467125;32;33763;-86
2022/09/07 01:37:58;;;;;;;;;;;;;;;24.19;49.95;99249.59;4453879;32;34679;-86
2022/09/07 01:40:32;;;;;;;;;;;;;;;24.11;50.37;99255.19;4455914;32;34557;-83
2022/09/07 01:43:01;;;;;;;;;;;;;;;24.48;49.15;99248.41;4465665;32;34247;-88
2022/09/07 01:45:30;;;;;;;;;;;;;;;23.65;51.61;99249.06;4466970;32;34093;-87
2022/09/07 01:47:58;;;;;;;;;;;;;;;24.12;50.56;99240.16;4453922;32;34310;-87
2022/09/07 01:50:26;;;;;;;;;;;;;;;24.10;50.67;99242.88;4452811;32;34309;-83
2022/09/07 01:53:00;;;;;;;;;;;;;;;24.44;49.75;99236.22;4457629;32;33759;-82
2022/09/07 01:55:32;;;;;;;;;;;;;;;23.53;51.58;99238.97;4470450;32;33973;-83
2022/09/07 01:58:19;;;;;;;;;;;;;;;24.38;49.62;99242.59;4463396;32;34535;-83
2022/09/07 02:00:48;;;;;;;;;;;;;;;23.46;52.21;99241.00;4478018;32;34870;-83
2022/09/07 02:03:27;;;;;;;;;;;;;;;23.84;51.32;99224.56;4462662;32;34283;-83
2022/09/07 02:05:58;;;;;;;;;;;;;;;23.05;53.22;99242.56;4482134;32;34124;-83
2022/09/07 02:08:31;;;;;;;;;;;;;;;23.13;53.13;99242.25;4482597;32;34497;-84
2022/09/07 02:11:06;;;;;;;;;;;;;;;24.13;50.56;99228.63;4468582;32;34348;-83
2022/09/07 02:13:35;;;;;;;;;;;;;;;23.86;50.90;99228.84;4464320;32;33317;-88
2022/09/07 02:16:05;;;;;;;;;;;;;;;23.74;51.21;99239.94;4474436;32;33933;-86
2022/09/07 02:18:35;;;;;;;;;;;;;;;24.24;50.19;99234.34;4459918;32;34365;-82
2022/09/07 02:21:02;;;;;;;;;;;;;;;24.04;50.48;99238.69;4468057;32;33976;-83
2022/09/07 02:23:32;;;;;;;;;;;;;;;23.94;50.66;99226.78;4470141;32;33291;-83
2022/09/07 02:26:00;;;;;;;;;;;;;;;23.86;50.60;99223.53;4465481;32;34863;-83
2022/09/07 02:28:28;;;;;;;;;;;;;;;23.97;50.68;99228.41;4465820;32;34153;-81
2022/09/07 02:30:55;;;;;;;;;;;;;;;23.47;51.34;99226.81;4478704;32;33022;-87
2022/09/07 02:33:23;;;;;;;;;;;;;;;24.00;50.37;99220.34;4480878;32;33077;-84
2022/09/07 02:35:50;;;;;;;;;;;;;;;23.93;50.80;99218.88;4473504;32;33846;-84
2022/09/07 02:38:17;;;;;;;;;;;;;;;23.62;51.34;99219.22;4482919;32;34290;-87
2022/09/07 02:40:51;;;;;;;;;;;;;;;24.04;50.33;99216.66;4470059;32;34290;-87
2022/09/07 02:43:19;;;;;;;;;;;;;;;22.92;52.90;99215.72;4477489;31;33645;-84
2022/09/07 02:45:46;;;;;;;;;;;;;;;24.23;49.76;99212.28;4471750;32;34264;-82
2022/09/07 02:48:32;;;;;;;;;;;;;;;24.20;49.61;99216.84;4480293;32;34331;-83
2022/09/07 02:51:08;;;;;;;;;;;;;;;23.77;50.64;99218.63;4473457;32;34248;-86
2022/09/07 02:53:59;;;;;;;;;;;;;;;24.34;49.14;99201.25;4466321;32;33080;-84
2022/09/07 02:56:29;;;;;;;;;;;;;;;24.37;49.14;99203.78;4473363;32;34921;-83
2022/09/07 02:58:59;;;;;;;;;;;;;;;23.78;50.36;99210.63;4482323;32;35255;-85
2022/09/07 03:01:36;;;;;;;;;;;;;;;24.36;49.00;99201.16;4482209;32;35366;-87
2022/09/07 03:04:11;;;;;;;;;;;;;;;24.19;49.42;99209.84;4483164;32;33009;-82
2022/09/07 03:06:39;;;;;;;;;;;;;;;24.74;47.77;99200.41;4454635;32;34276;-85
2022/09/07 03:09:09;;;;;;;;;;;;;;;23.65;50.62;99208.50;4460961;32;34980;-87
2022/09/07 03:11:36;;;;;;;;;;;;;;;22.70;53.31;99206.81;4459498;32;34366;-87
2022/09/07 03:14:32;;;;;;;;;;;;;;;22.41;54.17;99207.81;4483845;31;33347;-87
2022/09/07 03:16:59;;;;;;;;;;;;;;;23.87;50.22;99193.53;4478636;32;35060;-86
2022/09/07 03:19:26;;;;;;;;;;;;;;;24.47;48.95;99199.84;4482295;32;34188;-83
2022/09/07 03:21:53;;;;;;;;;;;;;;;22.63;53.10;99206.16;4479238;32;35071;-85
2022/09/07 03:24:21;;;;;;;;;;;;;;;23.77;50.61;99198.31;4483564;32;33761;-84
2022/09/07 03:26:50;;;;;;;;;;;;;;;23.51;50.97;99199.31;4472232;32;33727;-86
2022/09/07 03:29:17;;;;;;;;;;;;;;;23.44;51.13;99197.84;4464180;32;34145;-83
2022/09/07 03:31:45;;;;;;;;;;;;;;;23.46;50.99;99201.31;4467041;32;34170;-84
2022/09/07 03:34:12;;;;;;;;;;;;;;;24.13;49.11;99189.78;4458399;32;33406;-87
2022/09/07 03:36:39;;;;;;;;;;;;;;;23.83;49.79;99196.34;4474036;32;34989;-83
2022/09/07 03:39:06;;;;;;;;;;;;;;;24.37;48.62;99192.31;4467881;32;34082;-85
2022/09/07 03:41:34;;;;;;;;;;;;;;;24.88;47.40;99204.22;4471134;32;33875;-84
2022/09/07 03:44:04;;;;;;;;;;;;;;;24.97;47.02;99202.03;4483558;32;34318;-82
2022/09/07 03:46:31;;;;;;;;;;;;;;;25.07;46.93;99198.94;4476934;32;34006;-88
2022/09/07 03:48:59;;;;;;;;;;;;;;;24.96;46.91;99204.72;4474097;32;34075;-82
2022/09/07 03:51:26;;;;;;;;;;;;;;;25.13;46.28;99201.34;4482762;32;32425;-87
2022/09/07 03:53:54;;;;;;;;;;;;;;;25.43;45.67;99204.38;4472474;32;34510;-82
2022/09/07 03:56:23;;;;;;;;;;;;;;;25.31;45.86;99211.09;4474491;32;34230;-83
2022/09/07 03:58:51;;;;;;;;;;;;;;;25.50;45.44;99211.09;4467981;32;35349;-82
2022/09/07 04:01:20;;;;;;;;;;;;;;;25.17;45.78;99202.94;4470814;32;34241;-88
2022/09/07 04:03:47;;;;;;;;;;;;;;;24.46;47.68;99214.00;4480543;32;33119;-83
2022/09/07 04:06:15;;;;;;;;;;;;;;;24.80;46.51;99216.97;4477611;32;35057;-83
2022/09/07 04:08:42;;;;;;;;;;;;;;;24.85;46.26;99212.31;4476305;32;35181;-88
2022/09/07 04:11:11;;;;;;;;;;;;;;;24.71;46.39;99216.44;4469748;32;34458;-89
2022/09/07 04:13:40;;;;;;;;;;;;;;;25.17;45.58;99211.75;4455779;32;33556;-84
2022/09/07 04:16:11;;;;;;;;;;;;;;;24.31;47.60;99219.06;4477298;32;35001;-82
2022/09/07 04:18:39;;;;;;;;;;;;;;;24.70;46.91;99222.69;4469412;32;34464;-85
2022/09/07 04:21:06;;;;;;;;;;;;;;;24.44;46.91;99209.72;4461520;32;34488;-82
2022/09/07 04:23:35;;;;;;;;;;;;;;;23.62;48.42;99220.06;4473440;32;33272;-84
2022/09/07 04:26:03;;;;;;;;;;;;;;;22.68;51.34;99229.75;4467183;32;33989;-82
2022/09/07 04:28:30;;;;;;;;;;;;;;;24.01;48.45;99224.72;4465853;32;34003;-84
2022/09/07 04:31:00;;;;;;;;;;;;;;;24.18;48.05;99224.88;4466580;32;33912;-82
2022/09/07 04:33:29;;;;;;;;;;;;;;;24.03;48.42;99223.72;4467585;32;33557;-82
2022/09/07 04:35:58;;;;;;;;;;;;;;;23.62;49.19;99235.09;4466605;32;34299;-84
2022/09/07 04:38:25;;;;;;;;;;;;;;;24.16;48.16;99239.97;4467107;32;34444;-83
2022/09/07 04:40:59;;;;;;;;;;;;;;;22.67;51.32;99247.41;4467008;32;34173;-86
2022/09/07 04:43:27;;;;;;;;;;;;;;;22.79;51.37;99251.38;4467681;32;33441;-82
2022/09/07 04:45:54;;;;;;;;;;;;;;;23.30;50.33;99251.31;4467835;32;33886;-83
2022/09/07 04:48:21;;;;;;;;;;;;;;;23.16;50.18;99240.38;4474539;32;35216;-86
2022/09/07 04:50:50;;;;;;;;;;;;;;;24.42;47.01;99238.03;4471117;32;33774;-84
2022/09/07 04:53:18;;;;;;;;;;;;;;;24.46;46.99;99245.78;4466547;32;33067;-83
2022/09/07 04:55:46;;;;;;;;;;;;;;;24.85;46.40;99241.47;4466783;32;34182;-84
2022/09/07 04:58:13;;;;;;;;;;;;;;;25.10;44.52;99236.81;4467380;32;34047;-83
2022/09/07 05:00:41;;;;;;;;;;;;;;;25.12;45.17;99248.25;4467496;32;34166;-83
2022/09/07 05:03:08;;;;;;;;;;;;;;;25.70;44.23;99242.84;4467651;32;33238;-83
2022/09/07 05:05:38;;;;;;;;;;;;;;;24.81;45.47;99237.22;4467504;32;35031;-84
2022/09/07 05:08:05;;;;;;;;;;;;;;;24.40;46.37;99245.22;4467360;32;34825;-82
2022/09/07 05:10:33;;;;;;;;;;;;;;;24.09;47.21;99235.84;4467576;32;34025;-86
2022/09/07 05:13:00;;;;;;;;;;;;;;;24.87;45.38;99235.19;4467600;32;33298;-85
2022/09/07 05:15:28;;;;;;;;;;;;;;;23.44;48.78;99247.25;4467482;32;35081;-81
2022/09/07 05:17:56;;;;;;;;;;;;;;;25.04;45.37;99239.75;4466845;32;35344;-83
2022/09/07 05:20:24;;;;;;;;;;;;;;;25.58;44.53;99247.91;4467576;32;34278;-85
2022/09/07 05:22:58;;;;;;;;;;;;;;;24.93;45.71;99247.31;4467264;32;33320;-82
2022/09/07 05:25:26;;;;;;;;;;;;;;;24.25;47.16;99252.00;4467395;32;34010;-82
2022/09/07 05:27:54;;;;;;;;;;;;;;;24.69;45.65;99252.75;4453380;32;34024;-82
2022/09/07 05:30:21;;;;;;;;;;;;;;;25.02;45.62;99260.16;4467430;32;34988;-83
2022/09/07 05:33:08;;;;;;;;;;;;;;;24.38;46.71;99258.47;4467104;32;33280;-87
2022/09/07 05:35:35;;;;;;;;;;;;;;;23.04;49.79;99264.63;4466105;32;34157;-83
2022/09/07 05:38:03;;;;;;;;;;;;;;;24.10;47.75;99257.91;4466824;32;34433;-87
2022/09/07 05:40:31;;;;;;;;;;;;;;;24.32;47.37;99263.16;4453379;32;33328;-82
2022/09/07 05:43:01;;;;;;;;;;;;;;;23.61;48.71;99266.00;4453664;32;33091;-84
2022/09/07 05:45:28;;;;;;;;;;;;;;;24.10;47.59;99263.22;4466920;32;34975;-83
2022/09/07 05:47:55;;;;;;;;;;;;;;;23.14;50.01;99266.00;4466641;32;34062;-83
2022/09/07 05:50:23;;;;;;;;;;;;;;;24.31;47.26;99264.09;4467013;32;33927;-83
2022/09/07 05:52:50;;;;;;;;;;;;;;;25.06;45.50;99261.75;4466901;32;33166;-83
2022/09/07 05:55:17;;;;;;;;;;;;;;;24.37;47.72;99269.16;4467063;32;34753;-86
2022/09/07 05:57:56;;;;;;;;;;;;;;;24.06;47.86;99275.72;4466722;32;33764;-83
2022/09/07 06:00:24;;;;;;;;;;;;;;;23.10;50.66;99282.03;4466922;32;34964;-83
2022/09/07 06:02:51;;;;;;;;;;;;;;;23.19;50.64;99274.66;4466743;32;33524;-82
2022/09/07 06:05:18;;;;;;;;;;;;;;;22.76;51.57;99268.22;4466670;32;33891;-82
2022/09/07 06:07:46;;;;;;;;;;;;;;;23.38;50.40;99273.97;4466819;32;34405;-82
2022/09/07 06:10:14;;;;;;;;;;;;;;;24.22;48.72;99274.16;4467043;32;34308;-82
2022/09/07 06:13:01;;;;;;;;;;;;;;;24.60;47.31;99273.50;4466780;32;33346;-82
2022/09/07 06:15:30;;;;;;;;;;;;;;;24.69;47.35;99273.09;4466668;32;34058;-82
2022/09/07 06:17:57;;;;;;;;;;;;;;;24.38;47.50;99276.16;4466647;32;34506;-82
2022/09/07 06:20:25;;;;;;;;;;;;;;;24.27;47.66;99277.47;4467045;32;34718;-83
2022/09/07 06:22:54;;;;;;;;;;;;;;;24.48;47.64;99290.81;4466667;32;33424;-83
2022/09/07 06:25:21;;;;;;;;;;;;;;;23.67;49.25;99281.66;4466370;32;34827;-86
2022/09/07 06:27:49;;;;;;;;;;;;;;;24.07;47.72;99274.78;4466551;32;34491;-82
2022/09/07 06:30:16;;;;;;;;;;;;;;;24.61;47.21;99270.78;4466417;32;34012;-86
2022/09/07 06:32:43;;;;;;;;;;;;;;;24.08;48.69;99273.84;4466376;32;34032;-82
2022/09/07 06:35:11;;;;;;;;;;;;;;;23.35;49.82;99279.38;4466397;32;34641;-82
2022/09/07 06:37:39;;;;;;;;;;;;;;;23.49;50.66;99277.91;4466274;32;34270;-82
2022/09/07 06:40:06;;;;;;;;;;;;;;;24.66;47.84;99265.28;4466421;32;34485;-82
2022/09/07 06:42:35;;;;;;;;;;;;;;;24.34;47.85;99272.78;4466540;32;34386;-82
2022/09/07 06:45:02;;;;;;;;;;;;;;;23.69;49.52;99274.53;4466143;32;33969;-82
2022/09/07 06:47:30;;;;;;;;;;;;;;;24.54;47.94;99271.97;4466097;32;35237;-87
2022/09/07 06:49:57;;;;;;;;;;;;;;;24.62;47.70;99263.69;4466193;32;34183;-87
2022/09/07 06:52:25;;;;;;;;;;;;;;;24.51;47.55;99272.97;4466751;32;33282;-82
2022/09/07 06:54:53;;;;;;;;;;;;;;;24.69;47.41;99268.66;4467847;32;34131;-81
2022/09/07 06:57:23;;;;;;;;;;;;;;;24.84;47.93;99263.63;4468560;32;35326;-81
2022/09/07 06:59:50;;;;;;;;;;;;;;;25.51;45.95;99265.91;4468351;32;34801;-81
2022/09/07 07:02:18;;;;;;;;;;;;;;;25.83;45.41;99259.09;4468084;32;33039;-81
2022/09/07 07:04:45;;;;;;;;;;;;;;;25.95;44.88;99262.97;4468019;32;33979;-81
2022/09/07 07:07:13;;;;;;;;;;;;;;;25.57;44.94;99265.62;4468307;32;35305;-81
2022/09/07 07:09:40;;;;;;;;;;;;;;;25.29;45.94;99267.81;4467772;32;33841;-82
2022/09/07 07:12:08;;;;;;;;;;;;;;;25.65;45.19;99270.56;4468600;32;33166;-82
2022/09/07 07:14:36;;;;;;;;;;;;;;;25.89;45.42;99268.56;4454183;32;34550;-82
2022/09/07 07:17:09;;;;;;;;;;;;;;;24.04;49.07;99273.12;4468575;32;34135;-84
2022/09/07 07:19:37;;;;;;;;;;;;;;;25.65;46.03;99274.09;4468103;32;35137;-82
2022/09/07 07:22:04;;;;;;;;;;;;;;;25.61;46.27;99282.25;4468300;32;32995;-82
2022/09/07 07:24:51;;;;;;;;;;;;;;;25.08;46.50;99275.81;4468315;32;34995;-82
2022/09/07 07:27:20;;;;;;;;;;;;;;;25.20;46.89;99271.78;4468262;32;35329;-82
2022/09/07 07:29:47;;;;;;;;;;;;;;;25.73;45.58;99279.91;4468154;32;34014;-82
2022/09/07 07:32:14;;;;;;;;;;;;;;;26.72;43.91;99269.78;4468342;32;34092;-83
2022/09/07 07:34:42;;;;;;;;;;;;;;;26.33;45.03;99273.47;4468132;32;34805;-83
2022/09/07 07:37:09;;;;;;;;;;;;;;;26.52;43.22;99274.31;4468194;32;35026;-82
2022/09/07 07:39:36;;;;;;;;;;;;;;;27.13;42.31;99273.81;4468373;32;34724;-82
2022/09/07 07:42:23;;;;;;;;;;;;;;;26.87;42.85;99268.97;4468168;32;33121;-82
2022/09/07 07:44:51;;;;;;;;;;;;;;;26.22;44.14;99270.53;4468145;32;34127;-83
2022/09/07 07:47:38;;;;;;;;;;;;;;;26.81;43.05;99269.28;4468235;32;35588;-82
2022/09/07 07:50:07;;;;;;;;;;;;;;;26.14;43.65;99274.41;4468285;32;34832;-82
2022/09/07 07:52:54;;;;;;;;;;;;;;;27.27;41.95;99267.72;4468233;32;33385;-82
2022/09/07 07:55:41;;;;;;;;;;;;;;;25.16;45.68;99276.34;4467982;32;34190;-82
2022/09/07 07:58:09;;;;;;;;;;;;;;;25.36;45.68;99267.47;4467991;32;34157;-85
2022/09/07 08:00:36;;;;;;;;;;;;;;;25.80;45.09;99269.00;4468122;32;33803;-85
2022/09/07 08:03:21;;;;;;;;;;;;;;;26.77;44.05;99257.94;4467402;32;34194;-85
2022/09/07 08:05:48;;;;;;;;;;;;;;;25.87;45.51;99265.09;4453660;32;34234;-84
2022/09/07 08:08:15;;;;;;;;;;;;;;;26.18;44.71;99264.50;4454188;32;34425;-87
2022/09/07 08:10:44;;;;;;;;;;;;;;;26.25;43.09;99270.34;4467829;32;34246;-86
2022/09/07 08:13:13;;;;;;;;;;;;;;;27.39;41.85;99272.41;4454110;32;33363;-82
2022/09/07 08:15:43;;;;;;;;;;;;;;;27.17;42.92;99271.84;4468073;32;34970;-83
2022/09/07 08:18:11;;;;;;;;;;;;;;;27.72;42.25;99275.94;4467467;32;34503;-85
2022/09/07 08:20:39;;;;;;;;;;;;;;;27.32;42.41;99276.34;4467622;32;33950;-83
2022/09/07 08:23:06;;;;;;;;;;;;;;;28.36;39.98;99264.28;4468001;32;34223;-86
2022/09/07 08:25:34;;;;;;;;;;;;;;;26.62;42.60;99269.37;4453836;32;34141;-86
2022/09/07 08:28:01;;;;;;;;;;;;;;;27.12;41.36;99265.88;4467690;32;35148;-87
2022/09/07 08:30:29;;;;;;;;;;;;;;;26.82;41.93;99266.56;4468020;32;34891;-87
2022/09/07 08:32:56;;;;;;;;;;;;;;;26.67;42.23;99268.22;4468037;32;34150;-86
2022/09/07 08:35:23;;;;;;;;;;;;;;;27.10;42.26;99276.59;4467960;32;35102;-86
2022/09/07 08:37:50;;;;;;;;;;;;;;;27.65;41.62;99270.09;4467809;32;34389;-82
2022/09/07 08:40:18;;;;;;;;;;;;;;;27.61;42.00;99263.22;4467908;32;34872;-82
2022/09/07 08:43:04;;;;;;;;;;;;;;;27.91;41.53;99262.47;4453611;32;34410;-83
2022/09/07 08:45:33;;;;;;;;;;;;;;;27.85;41.25;99264.56;4467739;32;34258;-86
2022/09/07 08:48:00;;;;;;;;;;;;;;;28.09;40.08;99261.41;4467761;32;34435;-83
2022/09/07 08:50:36;;;;;;;;;;;;;;;28.32;39.92;99254.75;4453569;32;34198;-85
2022/09/07 08:53:08;;;;;;;;;;;;;;;27.27;41.68;99266.88;4467445;32;33454;-83
2022/09/07 08:55:36;;;;;;;;;;;;;;;28.37;40.39;99260.69;4453900;32;34187;-82
2022/09/07 08:58:06;;;;;;;;;;;;;;;28.54;39.59;99255.22;4453369;32;35365;-86
2022/09/07 09:00:53;;;;;;;;;;;;;;;27.66;40.28;99253.19;4456059;32;33724;-83
2022/09/07 09:03:40;;;;;;;;;;;;;;;28.26;40.55;99241.75;4467581;32;33479;-81
2022/09/07 09:06:34;;;;;;;;;;;;;;;27.28;41.46;99247.31;4455707;32;34355;-82
2022/09/07 09:09:04;;;;;;;;;;;;;;;28.85;40.36;99242.69;4467565;32;34374;-85
2022/09/07 09:11:50;;;;;;;;;;;;;;;28.71;38.57;99248.00;4467089;32;34438;-83
2022/09/07 09:14:17;;;;;;;;;;;;;;;29.12;38.65;99255.34;4453743;32;33642;-86
2022/09/07 09:16:45;;;;;;;;;;;;;;;29.13;39.63;99249.88;4467163;32;34734;-83
2022/09/07 09:19:28;;;;;;;;;;;;;;;28.17;40.31;99255.66;4453724;32;34353;-86
2022/09/07 09:22:01;;;;;;;;;;;;;;;27.78;40.26;99252.53;4467408;32;34290;-83
2022/09/07 09:24:29;;;;;;;;;;;;;;;28.61;39.84;99253.91;4453400;32;33553;-86
2022/09/07 09:26:57;;;;;;;;;;;;;;;28.44;40.39;99245.19;4453422;32;33700;-82
2022/09/07 09:29:24;;;;;;;;;;;;;;;27.44;41.14;99255.31;4467354;32;34880;-84
2022/09/07 09:31:52;;;;;;;;;;;;;;;27.49;41.77;99247.91;4467520;32;34569;-83
2022/09/07 09:34:20;;;;;;;;;;;;;;;28.80;40.32;99247.47;4467764;32;32690;-83
2022/09/07 09:36:52;;;;;;;;;;;;;;;29.08;39.52;99235.97;4453428;32;34688;-83
2022/09/07 09:39:27;;;;;;;;;;;;;;;27.87;41.12;99236.00;4467119;32;35180;-85
2022/09/07 09:41:54;;;;;;;;;;;;;;;28.79;39.29;99235.06;4467411;32;34452;-82
2022/09/07 09:44:22;;;;;;;;;;;;;;;28.57;39.32;99236.38;4452915;32;33748;-87
2022/09/07 09:46:51;;;;;;;;;;;;;;;29.02;39.17;99239.91;4453051;32;35089;-82
2022/09/07 09:49:39;;;;;;;;;;;;;;;29.63;38.87;99237.00;4455392;32;35115;-83
2022/09/07 09:52:16;;;;;;;;;;;;;;;29.14;37.83;99230.25;4467072;32;34238;-82
2022/09/07 09:55:04;;;;;;;;;;;;;;;29.34;38.01;99234.34;4455054;32;33886;-82
2022/09/07 09:57:51;;;;;;;;;;;;;;;30.02;36.53;99222.84;4466888;32;35024;-86
2022/09/07 10:00:39;;;;;;;;;;;;;;;29.57;36.26;99223.06;4466989;32;34226;-82
2022/09/07 10:03:27;;;;;;;;;;;;;;;30.13;35.86;99219.47;4455123;32;35015;-86
2022/09/07 10:06:15;;;;;;;;;;;;;;;30.52;35.83;99224.78;4466775;32;34255;-86
2022/09/07 10:09:08;;;;;;;;;;;;;;;30.05;35.28;99218.16;4466868;32;34347;-83
2022/09/07 10:11:46;;;;;;;;;;;;;;;30.91;34.58;99220.38;4463990;32;33763;-86
2022/09/07 10:14:33;;;;;;;;;;;;;;;29.09;37.90;99224.34;4455386;32;33806;-86
2022/09/07 10:17:08;;;;;;;;;;;;;;;30.12;36.96;99217.72;4466836;32;33961;-86
2022/09/07 10:19:36;;;;;;;;;;;;;;;30.54;35.24;99214.84;4452665;32;34356;-86
2022/09/07 10:22:20;;;;;;;;;;;;;;;30.45;35.05;99210.13;4452307;32;34198;-86
2022/09/07 10:24:49;;;;;;;;;;;;;;;30.95;34.16;99208.47;4466662;32;34152;-82
2022/09/07 10:27:35;;;;;;;;;;;;;;;31.17;33.96;99204.25;4467395;32;33279;-85
2022/09/07 10:30:08;;;;;;;;;;;;;;;30.57;34.55;99207.56;4468582;32;34339;-82
2022/09/07 10:32:35;;;;;;;;;;;;;;;30.10;35.18;99214.31;4454408;32;34366;-83
2022/09/07 10:35:22;;;;;;;;;;;;;;;30.54;34.14;99208.66;4468745;32;34332;-83
2022/09/07 10:37:54;;;;;;;;;;;;;;;29.48;35.15;99215.63;4468634;32;33519;-83
2022/09/07 10:40:24;;;;;;;;;;;;;;;30.89;34.50;99208.91;4468726;32;34043;-83
2022/09/07 10:43:24;;;;;;;;;;;;;;;30.77;33.84;99207.09;4454613;32;34361;-85
2022/09/07 10:45:54;;;;;;;;;;;;;;;31.16;34.44;99210.59;4434074;32;34852;-82
2022/09/07 10:48:34;;;;;;;;;;;;;;;31.49;34.59;99202.81;4468710;32;34067;-82
2022/09/07 10:51:03;;;;;;;;;;;;;;;30.60;33.70;99202.00;4454422;32;34846;-86
2022/09/07 10:54:09;;;;;;;;;;;;;;;31.39;32.88;99204.44;4455407;32;34141;-83
2022/09/07 10:57:02;;;;;;;;;;;;;;;30.69;34.69;99206.75;4421199;32;34107;-86
2022/09/07 10:59:35;;;;;;;;;;;;;;;31.33;32.96;99196.88;4454604;32;33635;-84
2022/09/07 11:02:29;;;;;;;;;;;;;;;31.15;33.46;99198.16;4468303;32;34275;-86
2022/09/07 11:04:59;;;;;;;;;;;;;;;30.93;34.03;99199.69;4455002;32;35400;-86
2022/09/07 11:07:45;;;;;;;;;;;;;;;31.34;32.79;99201.25;4468341;32;34276;-84
2022/09/07 11:10:12;;;;;;;;;;;;;;;30.58;34.15;99201.28;4468625;32;33264;-83
2022/09/07 11:12:42;;;;;;;;;;;;;;;30.72;34.27;99198.47;4468537;32;34261;-83
2022/09/07 11:15:09;;;;;;;;;;;;;;;30.81;34.90;99199.72;4454621;32;34472;-84
2022/09/07 11:17:42;;;;;;;;;;;;;;;30.68;35.77;99194.31;4468606;32;34348;-85
2022/09/07 11:20:16;;;;;;;;;;;;;;;30.66;35.14;99196.25;4454077;32;33316;-85
2022/09/07 11:23:02;;;;;;;;;;;;;;;31.72;33.89;99179.69;4454317;32;34116;-84
2022/09/07 11:25:32;;;;;;;;;;;;;;;32.00;32.58;99184.84;4468322;32;35327;-82
2022/09/07 11:28:07;;;;;;;;;;;;;;;31.37;34.15;99186.81;4454236;32;33802;-83
2022/09/07 11:30:36;;;;;;;;;;;;;;;30.92;35.21;99191.78;4454099;32;33230;-86
2022/09/07 11:33:09;;;;;;;;;;;;;;;31.81;34.29;99179.97;4454158;32;35039;-86
2022/09/07 11:35:49;;;;;;;;;;;;;;;31.32;35.63;99183.56;4468021;32;35160;-82
2022/09/07 11:38:29;;;;;;;;;;;;;;;31.87;33.26;99179.56;4468142;32;34243;-83
2022/09/07 11:41:07;;;;;;;;;;;;;;;32.21;32.00;99172.50;4454165;32;34097;-84
2022/09/07 11:43:35;;;;;;;;;;;;;;;32.26;30.90;99174.81;4468431;32;34162;-83
2022/09/07 11:46:04;;;;;;;;;;;;;;;31.56;33.41;99171.09;4454085;32;35108;-86
2022/09/07 11:48:32;;;;;;;;;;;;;;;32.44;32.34;99163.53;4454007;32;34407;-86
2022/09/07 11:51:02;;;;;;;;;;;;;;;32.52;31.96;99170.16;4454052;32;33394;-85
2022/09/07 11:53:33;;;;;;;;;;;;;;;32.67;32.50;99171.63;4453955;32;34975;-82
2022/09/07 11:56:24;;;;;;;;;;;;;;;32.77;32.94;99163.69;4468101;32;34014;-82
2022/09/07 11:59:20;;;;;;;;;;;;;;;32.81;31.89;99160.66;4459982;32;34384;-83
2022/09/07 12:01:52;;;;;;;;;;;;;;;33.07;32.20;99165.78;4454653;32;33380;-87
2022/09/07 12:04:28;;;;;;;;;;;;;;;33.17;30.78;99161.41;4453619;32;34950;-85
2022/09/07 12:07:01;;;;;;;;;;;;;;;32.99;30.64;99152.12;4468293;32;34880;-84
2022/09/07 12:09:51;;;;;;;;;;;;;;;33.03;32.88;99149.06;4467877;32;34305;-84
2022/09/07 12:12:37;;;;;;;;;;;;;;;32.62;33.32;99152.38;4468124;32;33532;-83
2022/09/07 12:15:16;;;;;;;;;;;;;;;32.24;33.45;99150.78;4467948;32;34181;-83
2022/09/07 12:17:46;;;;;;;;;;;;;;;32.70;33.04;99150.78;4468241;32;34407;-82
2022/09/07 12:20:24;;;;;;;;;;;;;;;32.25;32.56;99157.88;4468396;32;34333;-87
2022/09/07 12:23:00;;;;;;;;;;;;;;;32.67;32.64;99148.31;4453851;32;32478;-87
2022/09/07 12:25:32;;;;;;;;;;;;;;;33.15;32.14;99152.63;4454522;32;34321;-86
2022/09/07 12:27:59;;;;;;;;;;;;;;;32.22;32.75;99150.03;4453967;32;34243;-85
2022/09/07 12:30:28;;;;;;;;;;;;;;;33.02;31.90;99150.06;4453855;32;34945;-83
2022/09/07 12:32:56;;;;;;;;;;;;;;;32.70;32.45;99141.88;4467940;32;34215;-83
2022/09/07 12:35:28;;;;;;;;;;;;;;;32.94;32.14;99142.63;4467940;32;34074;-82
2022/09/07 12:37:59;;;;;;;;;;;;;;;33.25;32.85;99147.34;4467702;32;34078;-83
2022/09/07 12:40:29;;;;;;;;;;;;;;;31.43;34.48;99149.69;4467821;32;35016;-83
2022/09/07 12:43:11;;;;;;;;;;;;;;;32.37;33.38;99142.63;4467827;32;33520;-87
2022/09/07 12:45:39;;;;;;;;;;;;;;;32.28;33.54;99146.03;4467793;32;34332;-86
2022/09/07 12:48:15;;;;;;;;;;;;;;;32.55;32.96;99137.72;4467666;32;35393;-82
2022/09/07 12:50:48;;;;;;;;;;;;;;;32.82;33.85;99137.34;4466975;32;33978;-84
2022/09/07 12:53:19;;;;;;;;;;;;;;;32.88;32.58;99132.34;4467708;32;33340;-84
2022/09/07 12:56:01;;;;;;;;;;;;;;;32.63;32.77;99135.28;4467621;32;34198;-83
2022/09/07 12:58:54;;;;;;;;;;;;;;;33.06;32.70;99126.50;4455993;32;34392;-86
2022/09/07 13:01:34;;;;;;;;;;;;;;;33.33;31.65;99140.34;4453885;32;35127;-83
2022/09/07 13:04:08;;;;;;;;;;;;;;;32.79;32.82;99124.16;4453507;32;32985;-83
2022/09/07 13:06:54;;;;;;;;;;;;;;;32.17;32.92;99128.94;4467597;32;35029;-83
2022/09/07 13:09:32;;;;;;;;;;;;;;;32.70;35.14;99128.44;4467786;32;34309;-86
2022/09/07 13:12:00;;;;;;;;;;;;;;;33.31;31.36;99120.84;4467629;32;35030;-87